createdAt,value
2017-10-28T00:02:26.391Z,101501.14
2017-10-28T00:04:53.872Z,101496.80
2017-10-28T00:07:21.360Z,101494.31
2017-10-28T00:09:48.892Z,101490.02
2017-10-28T00:12:16.375Z,101489.31
2017-10-28T00:14:43.952Z,101483.78
2017-10-28T00:17:11.475Z,101485.47
2017-10-28T00:19:39.056Z,101484.44
2017-10-28T00:22:06.552Z,101485.16
2017-10-28T00:24:34.090Z,101481.70
2017-10-28T00:27:01.571Z,101478.39
2017-10-28T00:29:29.090Z,101466.09
2017-10-28T00:32:02.388Z,101463.39
2017-10-28T00:34:35.590Z,101457.77
2017-10-28T00:37:03.091Z,101448.80
2017-10-28T00:39:30.605Z,101446.00
2017-10-28T00:41:58.092Z,101430.37
2017-10-28T00:44:25.601Z,101422.06
2017-10-28T00:46:53.263Z,101407.66
2017-10-28T00:49:20.820Z,101402.45
2017-10-28T00:51:48.302Z,101395.19
2017-10-28T00:54:15.839Z,101400.39
2017-10-28T00:56:43.326Z,101399.87
2017-10-28T00:59:10.808Z,101393.52
2017-10-28T01:01:38.324Z,101381.42
2017-10-28T01:04:05.815Z,101387.24
2017-10-28T01:06:33.310Z,101389.75
2017-10-28T01:09:00.849Z,101382.97
2017-10-28T01:11:28.624Z,101377.05
2017-10-28T01:13:56.109Z,101371.83
2017-10-28T01:16:23.622Z,101369.03
2017-10-28T01:18:51.105Z,101367.56
2017-10-28T01:21:18.639Z,101366.31
2017-10-28T01:23:46.145Z,101362.34
2017-10-28T01:26:13.640Z,101357.56
2017-10-28T01:28:41.161Z,101358.91
2017-10-28T01:31:08.654Z,101346.00
2017-10-28T01:33:36.281Z,101350.68
2017-10-28T01:36:03.836Z,101339.00
2017-10-28T01:38:31.328Z,101332.77
2017-10-28T01:40:58.813Z,101327.75
2017-10-28T01:43:26.324Z,101315.78
2017-10-28T01:45:53.807Z,101319.55
2017-10-28T01:48:21.288Z,101306.22
2017-10-28T01:50:48.823Z,101302.67
2017-10-28T01:53:16.313Z,101305.18
2017-10-28T01:55:43.791Z,101303.00
2017-10-28T01:58:11.454Z,101306.35
2017-10-28T02:00:38.943Z,101295.20
2017-10-28T02:03:06.439Z,101298.63
2017-10-28T02:05:33.974Z,101296.33
2017-10-28T02:08:01.460Z,101293.52
2017-10-28T02:10:28.944Z,101294.46
2017-10-28T02:12:56.456Z,101293.92
2017-10-28T02:15:23.968Z,101294.67
2017-10-28T02:17:51.451Z,101286.22
2017-10-28T02:20:18.984Z,101277.70
2017-10-28T02:22:46.464Z,101276.13
2017-10-28T02:25:13.996Z,101270.32
2017-10-28T02:27:41.539Z,101269.50
2017-10-28T02:30:09.019Z,101254.81
2017-10-28T02:32:36.508Z,101252.31
2017-10-28T02:35:04.024Z,101245.23
2017-10-28T02:37:31.540Z,101245.33
2017-10-28T02:39:59.019Z,101237.72
2017-10-28T02:42:26.533Z,101235.23
2017-10-28T02:44:54.064Z,101230.86
2017-10-28T02:47:21.579Z,101215.16
2017-10-28T02:49:49.082Z,101217.87
2017-10-28T02:52:16.640Z,101210.27
2017-10-28T02:54:44.199Z,101206.72
2017-10-28T02:57:11.759Z,101215.16
2017-10-28T02:59:39.428Z,101204.97
2017-10-28T03:02:06.908Z,101203.17
2017-10-28T03:04:34.390Z,101187.77
2017-10-28T03:07:01.913Z,101190.45
2017-10-28T03:09:29.447Z,101175.98
2017-10-28T03:11:57.016Z,101183.73
2017-10-28T03:14:24.561Z,101175.30
2017-10-28T03:16:52.128Z,101178.41
2017-10-28T03:19:19.616Z,101179.23
2017-10-28T03:21:47.347Z,101170.30
2017-10-28T03:24:14.916Z,101176.13
2017-10-28T03:26:42.400Z,101175.00
2017-10-28T03:29:10.030Z,101170.75
2017-10-28T03:31:37.593Z,101169.09
2017-10-28T03:34:05.254Z,101160.95
2017-10-28T03:36:32.768Z,101162.43
2017-10-28T03:39:00.249Z,101158.25
2017-10-28T03:41:27.730Z,101153.48
2017-10-28T03:43:55.308Z,101157.23
2017-10-28T03:46:22.792Z,101151.50
2017-10-28T03:48:50.301Z,101153.38
2017-10-28T03:51:17.856Z,101145.78
2017-10-28T03:53:45.352Z,101144.63
2017-10-28T03:56:12.850Z,101144.32
2017-10-28T03:58:40.385Z,101140.08
2017-10-28T04:01:07.873Z,101143.72
2017-10-28T04:03:35.361Z,101139.44
2017-10-28T04:06:03.116Z,101129.38
2017-10-28T04:08:30.604Z,101136.64
2017-10-28T04:10:58.091Z,101121.57
2017-10-28T04:13:25.618Z,101117.70
2017-10-28T04:15:53.109Z,101116.14
2017-10-28T04:18:20.711Z,101122.92
2017-10-28T04:20:48.239Z,101114.17
2017-10-28T04:23:15.728Z,101112.71
2017-10-28T04:25:43.219Z,101111.59
2017-10-28T04:28:10.760Z,101103.88
2017-10-28T04:30:38.247Z,101092.98
2017-10-28T04:33:05.728Z,101088.91
2017-10-28T04:35:33.260Z,101084.83
2017-10-28T04:38:00.745Z,101074.88
2017-10-28T04:40:28.236Z,101070.69
2017-10-28T04:42:55.752Z,101061.55
2017-10-28T04:45:23.235Z,101063.31
2017-10-28T04:47:50.799Z,101058.13
2017-10-28T04:50:18.363Z,101051.03
2017-10-28T04:52:45.924Z,101051.05
2017-10-28T04:55:13.488Z,101031.47
2017-10-28T04:57:41.053Z,101029.71
2017-10-28T05:00:08.610Z,101019.83
2017-10-28T05:02:36.100Z,101008.90
2017-10-28T05:05:03.607Z,101019.19
2017-10-28T05:07:31.142Z,101010.16
2017-10-28T05:09:58.755Z,101011.93
2017-10-28T05:12:26.236Z,101002.73
2017-10-28T05:14:53.748Z,100993.28
2017-10-28T05:17:21.228Z,100982.76
2017-10-28T05:19:48.722Z,100963.39
2017-10-28T05:22:16.223Z,100958.19
2017-10-28T05:24:43.720Z,100955.40
2017-10-28T05:27:11.266Z,100959.13
2017-10-28T05:29:38.800Z,100951.63
2017-10-28T05:32:06.368Z,100957.25
2017-10-28T05:34:33.892Z,100952.88
2017-10-28T05:37:01.473Z,100951.20
2017-10-28T05:39:28.982Z,100950.17
2017-10-28T05:41:56.706Z,100948.81
2017-10-28T05:44:24.256Z,100940.91
2017-10-28T05:46:51.737Z,100946.41
2017-10-28T05:49:19.269Z,100939.26
2017-10-28T05:51:46.763Z,100930.61
2017-10-28T05:54:14.249Z,100934.73
2017-10-28T05:56:41.775Z,100921.09
2017-10-28T05:59:09.262Z,100931.91
2017-10-28T06:01:36.749Z,100921.71
2017-10-28T06:04:04.424Z,100905.27
2017-10-28T06:06:31.915Z,100899.86
2017-10-28T06:08:59.404Z,100902.68
2017-10-28T06:11:27.000Z,100901.86
2017-10-28T06:13:54.560Z,100906.12
2017-10-28T06:16:22.111Z,100893.36
2017-10-28T06:18:49.618Z,100889.71
2017-10-28T06:21:17.136Z,100902.74
2017-10-28T06:23:44.629Z,100904.41
2017-10-28T06:26:12.112Z,100902.83
2017-10-28T06:28:39.715Z,100908.00
2017-10-28T06:31:07.272Z,100910.06
2017-10-28T06:33:34.757Z,100901.00
2017-10-28T06:36:02.268Z,100903.80
2017-10-28T06:38:29.796Z,100917.20
2017-10-28T06:40:57.285Z,100905.33
2017-10-28T06:43:24.770Z,100902.66
2017-10-28T06:45:52.303Z,100889.95
2017-10-28T06:48:19.781Z,100871.86
2017-10-28T06:50:47.269Z,100856.50
2017-10-28T06:53:14.776Z,100845.11
2017-10-28T06:55:42.251Z,100841.42
2017-10-28T06:58:09.783Z,100845.56
2017-10-28T07:00:37.280Z,100851.63
2017-10-28T07:03:04.761Z,100848.80
2017-10-28T07:05:32.287Z,100834.61
2017-10-28T07:07:59.771Z,100838.80
2017-10-28T07:10:27.256Z,100838.80
2017-10-28T07:12:54.764Z,100844.00
2017-10-28T07:15:22.304Z,100843.55
2017-10-28T07:17:49.878Z,100840.43
2017-10-28T07:20:17.365Z,100838.01
2017-10-28T07:22:44.875Z,100828.95
2017-10-28T07:25:12.362Z,100826.12
2017-10-28T07:27:39.899Z,100815.86
2017-10-28T07:30:07.569Z,100813.59
2017-10-28T07:32:35.068Z,100821.80
2017-10-28T07:35:02.589Z,100816.09
2017-10-28T07:37:30.136Z,100806.56
2017-10-28T07:39:57.700Z,100805.98
2017-10-28T07:42:25.191Z,100792.42
2017-10-28T07:44:52.724Z,100794.75
2017-10-28T07:47:20.216Z,100792.94
2017-10-28T07:49:47.723Z,100789.08
2017-10-28T07:52:15.315Z,100777.72
2017-10-28T07:54:42.807Z,100770.55
2017-10-28T07:57:10.299Z,100767.22
2017-10-28T07:59:37.869Z,100758.80
2017-10-28T08:02:05.370Z,100744.38
2017-10-28T08:04:32.929Z,100757.81
2017-10-28T08:07:00.547Z,100750.84
2017-10-28T08:09:28.029Z,100737.08
2017-10-28T08:11:55.514Z,100745.79
2017-10-28T08:14:23.047Z,100746.17
2017-10-28T08:16:50.535Z,100743.39
2017-10-28T08:19:18.020Z,100734.31
2017-10-28T08:21:45.709Z,100730.03
2017-10-28T08:24:13.208Z,100752.70
2017-10-28T08:26:40.705Z,100759.81
2017-10-28T08:29:08.224Z,100751.78
2017-10-28T08:31:35.752Z,100745.79
2017-10-28T08:34:03.257Z,100725.83
2017-10-28T08:36:30.785Z,100705.70
2017-10-28T08:38:58.278Z,100707.31
2017-10-28T08:41:25.767Z,100710.36
2017-10-28T08:43:53.325Z,100704.94
2017-10-28T08:46:20.826Z,100699.15
2017-10-28T08:48:48.311Z,100703.37
2017-10-28T08:51:15.844Z,100691.86
2017-10-28T08:53:43.331Z,100676.14
2017-10-28T08:56:10.875Z,100680.66
2017-10-28T08:58:38.370Z,100675.62
2017-10-28T09:01:05.851Z,100676.03
2017-10-28T09:03:33.374Z,100674.64
2017-10-28T09:06:00.959Z,100663.59
2017-10-28T09:08:28.507Z,100658.08
2017-10-28T09:10:56.061Z,100651.85
2017-10-28T09:13:23.548Z,100636.94
2017-10-28T09:15:51.080Z,100635.68
2017-10-28T09:18:18.643Z,100631.84
2017-10-28T09:20:46.172Z,100627.52
2017-10-28T09:23:13.768Z,100608.61
2017-10-28T09:25:41.317Z,100591.11
2017-10-28T09:28:08.807Z,100605.20
2017-10-28T09:30:36.298Z,100594.25
2017-10-28T09:33:03.841Z,100604.94
2017-10-28T09:35:31.361Z,100603.52
2017-10-28T09:37:58.846Z,100602.98
2017-10-28T09:40:26.476Z,100598.02
2017-10-28T09:42:53.983Z,100594.01
2017-10-28T09:45:21.476Z,100579.81
2017-10-28T09:47:48.996Z,100575.39
2017-10-28T09:50:16.485Z,100564.44
2017-10-28T09:52:44.020Z,100564.72
2017-10-28T09:55:11.524Z,100544.88
2017-10-28T09:57:39.033Z,100539.98
2017-10-28T10:00:06.583Z,100540.02
2017-10-28T10:02:34.203Z,100538.67
2017-10-28T10:05:01.688Z,100543.48
2017-10-28T10:07:29.223Z,100546.52
2017-10-28T10:09:56.712Z,100551.47
2017-10-28T10:12:24.201Z,100551.27
2017-10-28T10:14:51.752Z,100551.47
2017-10-28T10:17:19.247Z,100546.05
2017-10-28T10:19:46.740Z,100549.69
2017-10-28T10:22:14.467Z,100563.43
2017-10-28T10:24:41.964Z,100543.22
2017-10-28T10:27:09.455Z,100538.73
2017-10-28T10:29:36.979Z,100524.77
2017-10-28T10:32:04.464Z,100524.04
2017-10-28T10:34:32.059Z,100519.34
2017-10-28T10:36:59.595Z,100501.89
2017-10-28T10:39:27.093Z,100506.96
2017-10-28T10:41:54.585Z,100502.27
2017-10-28T10:44:22.223Z,100503.53
2017-10-28T10:46:49.712Z,100496.19
2017-10-28T10:49:17.207Z,100479.54
2017-10-28T10:51:44.768Z,100478.22
2017-10-28T10:54:12.269Z,100473.86
2017-10-28T10:56:39.782Z,100466.75
2017-10-28T10:59:07.307Z,100464.91
2017-10-28T11:01:34.807Z,100465.08
2017-10-28T11:04:02.303Z,100458.46
2017-10-28T11:06:29.835Z,100448.95
2017-10-28T11:08:57.327Z,100441.71
2017-10-28T11:11:24.932Z,100430.44
2017-10-28T11:13:52.502Z,100434.70
2017-10-28T11:16:19.996Z,100436.87
2017-10-28T11:18:47.516Z,100441.61
2017-10-28T11:21:15.008Z,100426.09
2017-10-28T11:23:42.497Z,100419.31
2017-10-28T11:26:10.014Z,100413.07
2017-10-28T11:28:37.502Z,100408.00
2017-10-28T11:31:04.990Z,100413.70
2017-10-28T11:33:32.662Z,100405.88
2017-10-28T11:36:00.146Z,100406.11
2017-10-28T11:38:27.632Z,100393.94
2017-10-28T11:40:55.184Z,100393.16
2017-10-28T11:43:22.723Z,100410.03
2017-10-28T11:45:50.207Z,100396.87
2017-10-28T11:48:17.712Z,100397.79
2017-10-28T11:50:45.235Z,100374.05
2017-10-28T11:53:12.725Z,100368.16
2017-10-28T11:55:40.222Z,100367.80
2017-10-28T11:58:07.852Z,100358.71
2017-10-28T12:00:35.344Z,100342.70
2017-10-28T12:03:02.863Z,100356.55
2017-10-28T12:05:30.391Z,100352.78
2017-10-28T12:07:57.876Z,100342.37
2017-10-28T12:10:25.369Z,100322.59
2017-10-28T12:12:52.904Z,100320.31
2017-10-28T12:15:20.398Z,100314.11
2017-10-28T12:17:47.904Z,100316.13
2017-10-28T12:20:15.423Z,100312.10
2017-10-28T12:22:42.915Z,100300.38
2017-10-28T12:25:10.408Z,100304.66
2017-10-28T12:27:37.947Z,100294.39
2017-10-28T12:30:05.503Z,100289.80
2017-10-28T12:32:32.991Z,100284.44
2017-10-28T12:35:00.531Z,100273.10
2017-10-28T12:37:28.022Z,100270.02
2017-10-28T12:39:55.519Z,100268.48
2017-10-28T12:42:23.040Z,100259.17
2017-10-28T12:44:50.560Z,100245.52
2017-10-28T12:47:18.120Z,100263.68
2017-10-28T12:49:45.671Z,100252.72
2017-10-28T12:52:13.171Z,100243.45
2017-10-28T12:54:40.660Z,100243.45
2017-10-28T12:57:08.202Z,100229.55
2017-10-28T12:59:35.710Z,100236.38
2017-10-28T13:02:03.260Z,100242.01
2017-10-28T13:04:30.796Z,100243.73
2017-10-28T13:06:58.290Z,100235.39
2017-10-28T13:09:25.782Z,100232.64
2017-10-28T13:11:53.296Z,100235.08
2017-10-28T13:14:20.783Z,100235.78
2017-10-28T13:16:48.323Z,100235.38
2017-10-28T13:19:15.870Z,100222.95
2017-10-28T13:21:43.386Z,100228.48
2017-10-28T13:24:10.872Z,100229.47
2017-10-28T13:26:38.382Z,100224.14
2017-10-28T13:29:06.117Z,100211.52
2017-10-28T13:31:33.608Z,100205.23
2017-10-28T13:34:01.097Z,100192.06
2017-10-28T13:36:28.630Z,100201.39
2017-10-28T13:38:56.149Z,100189.11
2017-10-28T13:41:23.703Z,100187.41
2017-10-28T13:43:51.244Z,100171.50
2017-10-28T13:46:18.740Z,100187.72
2017-10-28T13:48:46.274Z,100180.16
2017-10-28T13:51:13.828Z,100175.58
2017-10-28T13:53:41.334Z,100163.23
2017-10-28T13:56:08.873Z,100159.16
2017-10-28T13:58:36.416Z,100149.84
2017-10-28T14:01:03.976Z,100151.88
2017-10-28T14:03:31.471Z,100155.54
2017-10-28T14:05:59.092Z,100133.19
2017-10-28T14:08:26.580Z,100130.91
2017-10-28T14:10:54.062Z,100125.62
2017-10-28T14:13:21.592Z,100127.75
2017-10-28T14:15:49.080Z,100108.63
2017-10-28T14:18:16.576Z,100119.58
2017-10-28T14:20:44.139Z,100118.94
2017-10-28T14:23:11.624Z,100117.44
2017-10-28T14:25:39.129Z,100126.30
2017-10-28T14:28:06.667Z,100112.55
2017-10-28T14:30:34.179Z,100116.13
2017-10-28T14:33:01.667Z,100108.72
2017-10-28T14:35:29.183Z,100105.36
2017-10-28T14:37:56.748Z,100113.20
2017-10-28T14:40:24.240Z,100101.91
2017-10-28T14:42:51.776Z,100102.41
2017-10-28T14:45:19.267Z,100104.75
2017-10-28T14:47:46.761Z,100108.05
2017-10-28T14:50:14.310Z,100095.39
2017-10-28T14:52:41.799Z,100087.45
2017-10-28T14:55:09.373Z,100099.19
2017-10-28T14:57:36.905Z,100097.38
2017-10-28T15:00:04.392Z,100096.84
2017-10-28T15:02:31.924Z,100093.45
2017-10-28T15:04:59.408Z,100087.48
2017-10-28T15:07:26.930Z,100090.70
2017-10-28T15:09:54.460Z,100087.48
2017-10-28T15:12:21.977Z,100076.77
2017-10-28T15:14:49.469Z,100073.38
2017-10-28T15:17:17.023Z,100084.22
2017-10-28T15:19:44.523Z,100077.00
2017-10-28T15:22:12.018Z,100070.45
2017-10-28T15:24:39.578Z,100077.83
2017-10-28T15:27:07.072Z,100084.84
2017-10-28T15:29:34.577Z,100082.38
2017-10-28T15:32:02.105Z,100068.83
2017-10-28T15:34:29.588Z,100069.48
2017-10-28T15:36:57.143Z,100074.98
2017-10-28T15:39:24.649Z,100073.34
2017-10-28T15:41:52.264Z,100065.04
2017-10-28T15:44:19.783Z,100059.96
2017-10-28T15:46:47.280Z,100057.33
2017-10-28T15:49:14.766Z,100066.98
2017-10-28T15:51:42.506Z,100055.44
2017-10-28T15:54:09.995Z,100049.27
2017-10-28T15:56:37.486Z,100042.28
2017-10-28T15:59:05.037Z,100027.37
2017-10-28T16:01:32.536Z,100035.12
2017-10-28T16:04:00.029Z,100027.80
2017-10-28T16:06:27.580Z,100022.95
2017-10-28T16:08:55.063Z,100030.75
2017-10-28T16:11:22.573Z,100038.76
2017-10-28T16:13:50.129Z,100035.88
2017-10-28T16:16:17.692Z,100036.76
2017-10-28T16:18:45.172Z,100024.69
2017-10-28T16:21:12.822Z,100034.88
2017-10-28T16:23:40.311Z,100034.91
2017-10-28T16:26:07.804Z,100031.66
2017-10-28T16:28:35.399Z,100036.17
2017-10-28T16:31:02.936Z,100025.69
2017-10-28T16:33:30.454Z,100029.48
2017-10-28T16:35:57.973Z,100038.44
2017-10-28T16:38:25.480Z,100025.45
2017-10-28T16:40:52.979Z,100021.02
2017-10-28T16:43:20.640Z,100017.94
2017-10-28T16:45:48.134Z,100014.72
2017-10-28T16:48:15.623Z,100002.28
2017-10-28T16:50:43.133Z,99995.05
2017-10-28T16:53:10.649Z,100002.52
2017-10-28T16:55:38.141Z,99993.60
2017-10-28T16:58:05.629Z,99980.21
2017-10-28T17:00:33.136Z,99975.36
2017-10-28T17:03:00.697Z,99975.16
2017-10-28T17:05:28.194Z,99973.80
2017-10-28T17:07:55.682Z,99976.03
2017-10-28T17:10:23.219Z,99977.45
2017-10-28T17:12:50.744Z,99957.53
2017-10-28T17:15:18.226Z,99967.06
2017-10-28T17:17:45.714Z,99964.47
2017-10-28T17:20:13.227Z,99969.97
2017-10-28T17:22:40.764Z,99964.98
2017-10-28T17:25:08.246Z,99954.27
2017-10-28T17:27:35.872Z,99957.69
2017-10-28T17:30:03.361Z,99952.95
2017-10-28T17:32:30.899Z,99941.48
2017-10-28T17:34:58.476Z,99939.96
2017-10-28T17:37:26.019Z,99938.77
2017-10-28T17:39:53.679Z,99940.94
2017-10-28T17:42:21.176Z,99943.77
2017-10-28T17:44:48.663Z,99932.83
2017-10-28T17:47:16.193Z,99927.86
2017-10-28T17:49:43.676Z,99922.84
2017-10-28T17:52:11.267Z,99915.78
2017-10-28T17:54:38.828Z,99913.51
2017-10-28T17:57:06.322Z,99903.25
2017-10-28T17:59:33.813Z,99907.64
2017-10-28T18:02:01.368Z,99906.28
2017-10-28T18:04:28.856Z,99911.06
2017-10-28T18:06:56.350Z,99899.28
2017-10-28T18:09:23.867Z,99893.06
2017-10-28T18:11:51.434Z,99894.86
2017-10-28T18:14:18.928Z,99875.31
2017-10-28T18:16:46.463Z,99876.67
2017-10-28T18:19:13.971Z,99871.41
2017-10-28T18:21:41.458Z,99871.24
2017-10-28T18:24:08.995Z,99862.69
2017-10-28T18:26:36.490Z,99857.95
2017-10-28T18:29:03.980Z,99848.61
2017-10-28T18:31:31.524Z,99865.16
2017-10-28T18:33:59.005Z,99867.04
2017-10-28T18:36:26.532Z,99869.41
2017-10-28T18:38:54.049Z,99858.53
2017-10-28T18:41:21.540Z,99850.00
2017-10-28T18:43:49.195Z,99845.85
2017-10-28T18:46:16.688Z,99839.16
2017-10-28T18:48:44.212Z,99839.09
2017-10-28T18:51:11.772Z,99829.03
2017-10-28T18:53:39.261Z,99814.94
2017-10-28T18:56:06.754Z,99812.22
2017-10-28T18:58:34.292Z,99810.11
2017-10-28T19:01:01.800Z,99808.40
2017-10-28T19:03:29.288Z,99803.55
2017-10-28T19:05:57.020Z,99790.52
2017-10-28T19:08:24.511Z,99787.66
2017-10-28T19:10:51.998Z,99773.78
2017-10-28T19:13:19.601Z,99775.31
2017-10-28T19:15:47.098Z,99765.13
2017-10-28T19:18:14.600Z,99752.16
2017-10-28T19:20:42.126Z,99753.30
2017-10-28T19:23:09.609Z,99749.97
2017-10-28T19:25:37.112Z,99732.02
2017-10-28T19:28:04.643Z,99739.48
2017-10-28T19:30:32.133Z,99721.69
2017-10-28T19:32:59.615Z,99722.83
2017-10-28T19:35:27.132Z,99707.56
2017-10-28T19:37:54.668Z,99710.35
2017-10-28T19:40:22.231Z,99714.44
2017-10-28T19:42:49.720Z,99703.84
2017-10-28T19:45:17.260Z,99700.92
2017-10-28T19:47:44.743Z,99693.50
2017-10-28T19:50:12.248Z,99683.94
2017-10-28T19:52:39.756Z,99682.10
2017-10-28T19:55:07.273Z,99674.92
2017-10-28T19:57:34.766Z,99666.69
2017-10-28T20:00:02.262Z,99656.47
2017-10-28T20:02:29.864Z,99652.33
2017-10-28T20:04:57.432Z,99650.42
2017-10-28T20:07:24.920Z,99641.98
2017-10-28T20:09:52.436Z,99636.34
2017-10-28T20:12:19.931Z,99629.98
2017-10-28T20:14:47.417Z,99622.40
2017-10-28T20:17:15.116Z,99612.76
2017-10-28T20:19:42.638Z,99599.33
2017-10-28T20:22:10.130Z,99599.09
2017-10-28T20:24:37.696Z,99595.44
2017-10-28T20:27:05.179Z,99584.47
2017-10-28T20:29:32.660Z,99576.23
2017-10-28T20:32:00.259Z,99577.33
2017-10-28T20:34:27.819Z,99573.26
2017-10-28T20:36:55.307Z,99568.01
2017-10-28T20:39:22.853Z,99555.50
2017-10-28T20:41:50.336Z,99545.35
2017-10-28T20:44:17.815Z,99545.41
2017-10-28T20:46:45.441Z,99538.06
2017-10-28T20:49:13.001Z,99527.50
2017-10-28T20:51:40.484Z,99513.02
2017-10-28T20:54:08.019Z,99508.53
2017-10-28T20:56:35.500Z,99501.20
2017-10-28T20:59:02.985Z,99493.64
2017-10-28T21:01:30.595Z,99488.55
2017-10-28T21:03:58.129Z,99477.31
2017-10-28T21:06:25.629Z,99471.08
2017-10-28T21:08:53.274Z,99474.55
2017-10-28T21:11:20.813Z,99456.70
2017-10-28T21:13:49.152Z,99443.25
2017-10-28T21:16:16.678Z,99433.91
2017-10-28T21:18:44.212Z,99418.48
2017-10-28T21:21:11.697Z,99411.59
2017-10-28T21:23:39.184Z,99405.47
2017-10-28T21:26:06.736Z,99382.33
2017-10-28T21:28:34.235Z,99376.53
2017-10-28T21:31:01.725Z,99356.08
2017-10-28T21:33:29.273Z,99364.73
2017-10-28T21:35:56.807Z,99346.18
2017-10-28T21:38:24.299Z,99338.22
2017-10-28T21:40:51.812Z,99340.83
2017-10-28T21:43:19.391Z,99334.63
2017-10-28T21:45:46.887Z,99317.53
2017-10-28T21:48:14.400Z,99319.16
2017-10-28T21:50:41.913Z,99310.75
2017-10-28T21:53:09.427Z,99299.38
2017-10-28T21:55:36.915Z,99286.69
2017-10-28T21:58:04.447Z,99276.26
2017-10-28T22:00:31.940Z,99269.48
2017-10-28T22:02:59.437Z,99263.13
2017-10-28T22:05:26.980Z,99253.09
2017-10-28T22:07:54.472Z,99252.44
2017-10-28T22:10:21.973Z,99237.96
2017-10-28T22:12:49.495Z,99243.38
2017-10-28T22:15:16.991Z,99240.13
2017-10-28T22:17:44.630Z,99227.95
2017-10-28T22:20:12.119Z,99224.70
2017-10-28T22:22:39.695Z,99203.33
2017-10-28T22:25:07.283Z,99192.91
2017-10-28T22:27:34.774Z,99179.77
2017-10-28T22:30:02.298Z,99165.01
2017-10-28T22:32:29.828Z,99163.11
2017-10-28T22:34:57.327Z,99160.95
2017-10-28T22:37:24.875Z,99142.55
2017-10-28T22:39:52.436Z,99132.55
2017-10-28T22:42:19.995Z,99124.42
2017-10-28T22:44:47.496Z,99118.47
2017-10-28T22:47:15.022Z,99100.34
2017-10-28T22:49:42.512Z,99091.52
2017-10-28T22:52:10.003Z,99079.48
2017-10-28T22:54:37.541Z,99078.27
2017-10-28T22:57:05.143Z,99059.41
2017-10-28T22:59:32.634Z,99046.41
2017-10-28T23:02:00.183Z,99031.51
2017-10-28T23:04:27.729Z,99019.31
2017-10-28T23:06:55.235Z,99008.47
2017-10-28T23:09:22.769Z,98996.80
2017-10-28T23:11:50.251Z,98983.13
2017-10-28T23:14:17.735Z,98978.66
2017-10-28T23:16:45.260Z,98965.92
2017-10-28T23:19:12.753Z,98962.11
2017-10-28T23:21:40.243Z,98951.15
2017-10-28T23:24:07.756Z,98947.08
2017-10-28T23:26:35.283Z,98928.63
2017-10-28T23:29:02.780Z,98925.51
2017-10-28T23:31:30.272Z,98927.15
2017-10-28T23:33:57.797Z,98912.38
2017-10-28T23:36:25.372Z,98901.38
2017-10-28T23:38:52.861Z,98907.20
2017-10-28T23:41:20.485Z,98883.36
2017-10-28T23:43:47.970Z,98866.13
2017-10-28T23:46:15.466Z,98852.70
2017-10-28T23:48:42.995Z,98846.33
2017-10-28T23:51:10.478Z,98827.09
2017-10-28T23:53:37.964Z,98813.80
2017-10-28T23:56:05.485Z,98808.09
2017-10-28T23:58:33.000Z,98788.97
